Terminal Aerodrome Forecast
Issued by NWS Louisville, KY

Home | Current Version | Previous Version | Text Only | Print | Product List | Glossary On
Versions: 1 2 3 4 5 6 7 8 9 10 11 12 13 14
000
FTUS43 KLMK 220500
TAFLEX
TAF
KLEX 220524Z 2206/2306 24006KT P6SM VCSH BKN080
     FM220900 26008KT P6SM VCSH BKN035
     FM221400 32010KT P6SM BKN015
     FM221900 33012G18KT P6SM SCT030
     FM230000 33005KT P6SM SKC=

USA.gov is the U.S. government's official web portal to all federal, state and local government web resources and services.